Galax, VA (24333)

4:54 AM EDT on July 28, 2015 (GMT -0400)
Taylorwoods Station | | Change Station
CLOSE
Current Station
Personal Weather Station
Location: Galax, VA
Elevation: 2585 ft
Nearby Weather Stations

Elev 2585 ft 36.68 °N, 80.89 °W | Updated 9 seconds ago

Partly Cloudy
Partly Cloudy
68.2 °F
Feels Like 68.2 °F
N
0.0
Wind Variable Wind from ESE
Gusts 0.0 mph

Today
High -- | Low -- °F
--% Chance of Precip.
Yesterday
High -- | Low -- °F
Precip. -- in
6:26 AM 8:33 PM
Waxing Gibbous, 88% visible
Pressure 30.09 in
Visibility 0.5 miles
Clouds Overcast 100 ft
Dew Point 66 °F
Humidity 94%
Rainfall 0.00 in
Snow Depth Not available.
UV 0.0 out of 12
Pollen 3.60 out of 12
Air Quality Not available.
Flu Activity Not available.
METAR KHLX 280835Z AUTO 00000KT 1/2SM FG OVC001 20/20 A3009 RMK AO2 T02000197

More Conditions Fewer Conditions

Pressure 30.09 in
Visibility 0.5 miles
Clouds Overcast 100 ft
Dew Point 66 °F
Humidity 94%
Rainfall 0.00 in
Snow Depth Not available.
UV 0.0 out of 12
Pollen 3.60 out of 12
Air Quality Not available.
Flu Activity Not available.
METAR KHLX 280835Z AUTO 00000KT 1/2SM FG OVC001 20/20 A3009 RMK AO2 T02000197

More Conditions Fewer Conditions

10-Day Weather Forecast

×

Almanac

Astronomy

Jul. 28, 2015 Rise Set
Actual Time
Civil Twilight
Nautical Twilight
Astronomical Twilight
Moon
Length of Visible Light
Length of Day
Tomorrow will be .
, % of the Moon is Illuminated

Today's Extremes

State Highs State Lows

Community

WunderPhotos

Upload Photos

1,841,801 photos uploaded!

WunderBlogs® & News

Nearby

Air Quality

  Air Quality AQ Index Pollutant
Not available.

Snow Depth

Station Depth Elevation

Earthquake Activity

City Distance Mag. Time & Date
Minimum magnitude displayed is 2.5.

Coastal Water Temperatures

Place Temperature

Stations

Nearby Weather Stations

Station Location Temp. Windchill Dew Point Humidity Wind Precip. Elev Updated Type